createdAt,value
2023-03-07T00:01:34.566Z,99701.94
2023-03-07T00:06:39.153Z,99713.19
2023-03-07T00:11:42.337Z,99718.72
2023-03-07T00:16:45.523Z,99722.03
2023-03-07T00:21:50.081Z,99717.41
2023-03-07T00:26:53.256Z,99711.53
2023-03-07T00:31:56.420Z,99721.25
2023-03-07T00:37:01.063Z,99720.50
2023-03-07T00:42:04.479Z,99715.22
2023-03-07T00:47:08.111Z,99716.25
2023-03-07T00:52:12.630Z,99723.03
2023-03-07T00:57:15.772Z,99726.94
2023-03-07T01:02:18.964Z,99732.31
2023-03-07T01:07:23.566Z,99733.34
2023-03-07T01:12:26.700Z,99742.53
2023-03-07T01:17:29.817Z,99743.59
2023-03-07T01:22:34.465Z,99739.69
2023-03-07T01:27:37.793Z,99739.25
2023-03-07T01:32:41.117Z,99741.88
2023-03-07T01:37:45.713Z,99751.75
2023-03-07T01:42:48.945Z,99755.19
2023-03-07T01:47:52.255Z,99755.00
2023-03-07T01:53:01.616Z,99755.94
2023-03-07T01:58:07.535Z,99762.00
2023-03-07T02:03:19.516Z,99768.78
2023-03-07T02:08:28.844Z,99772.69
2023-03-07T02:13:32.120Z,99779.69
2023-03-07T02:18:40.021Z,99788.22
2023-03-07T02:23:54.495Z,99801.31
2023-03-07T02:29:00.507Z,99803.88
2023-03-07T02:34:03.749Z,99805.75
2023-03-07T02:39:07.786Z,99795.28
2023-03-07T02:44:12.768Z,99797.00
2023-03-07T02:49:15.947Z,99789.06
2023-03-07T02:54:19.113Z,99801.75
2023-03-07T02:59:23.724Z,99780.13
2023-03-07T03:04:26.902Z,99791.25
2023-03-07T03:09:30.064Z,99784.97
2023-03-07T03:14:34.839Z,99788.88
2023-03-07T03:19:38.123Z,99787.19
2023-03-07T03:24:42.165Z,99783.63
2023-03-07T03:29:46.948Z,99782.34
2023-03-07T03:34:50.131Z,99781.56
2023-03-07T03:39:54.603Z,99781.47
2023-03-07T03:44:59.162Z,99780.47
2023-03-07T03:50:02.270Z,99771.19
2023-03-07T03:55:05.848Z,99777.66
2023-03-07T04:00:14.950Z,99775.34
2023-03-07T04:05:18.393Z,99776.03
2023-03-07T04:10:21.536Z,99776.97
2023-03-07T04:15:26.152Z,99784.88
2023-03-07T04:20:29.314Z,99776.44
2023-03-07T04:25:33.519Z,99783.50
2023-03-07T04:30:38.077Z,99779.69
2023-03-07T04:35:41.397Z,99791.94
2023-03-07T04:40:44.635Z,99788.22
2023-03-07T04:45:49.252Z,99794.44
2023-03-07T04:50:53.416Z,99798.50
2023-03-07T04:56:00.252Z,99795.03
2023-03-07T05:01:06.192Z,99793.31
2023-03-07T05:06:12.390Z,99810.00
2023-03-07T05:11:15.590Z,99800.31
2023-03-07T05:16:20.182Z,99811.63
2023-03-07T05:21:23.322Z,99812.56
2023-03-07T05:26:26.496Z,99823.31
2023-03-07T05:31:31.097Z,99812.75
2023-03-07T05:36:34.252Z,99816.84
2023-03-07T05:41:37.397Z,99823.94
2023-03-07T05:46:41.908Z,99828.84
2023-03-07T05:51:45.073Z,99822.22
2023-03-07T05:56:48.187Z,99825.09
2023-03-07T06:01:52.728Z,99836.91
2023-03-07T06:06:55.999Z,99844.66
2023-03-07T06:11:59.142Z,99854.53
2023-03-07T06:17:04.528Z,99865.78
2023-03-07T06:22:08.955Z,99867.28
2023-03-07T06:27:12.165Z,99865.38
2023-03-07T06:32:16.816Z,99861.31
2023-03-07T06:37:20.223Z,99877.50
2023-03-07T06:42:23.436Z,99878.63
2023-03-07T06:47:28.037Z,99890.31
2023-03-07T06:52:31.176Z,99889.00
2023-03-07T06:57:34.685Z,99885.19
2023-03-07T07:02:39.406Z,99892.84
2023-03-07T07:07:42.597Z,99894.56
2023-03-07T07:12:45.703Z,99914.75
2023-03-07T07:17:51.498Z,99899.56
2023-03-07T07:22:54.649Z,99920.03
2023-03-07T07:27:57.781Z,99921.91
2023-03-07T07:33:02.400Z,99934.56
2023-03-07T07:38:05.547Z,99937.03
2023-03-07T07:43:08.725Z,99943.34
2023-03-07T07:48:13.263Z,99953.41
2023-03-07T07:53:17.967Z,99954.78
2023-03-07T07:58:21.172Z,99966.25
2023-03-07T08:03:25.998Z,99969.59
2023-03-07T08:08:29.391Z,99979.91
2023-03-07T08:13:32.881Z,99987.13
2023-03-07T08:18:37.622Z,99996.09
2023-03-07T08:23:40.877Z,99999.72
2023-03-07T08:28:44.240Z,100007.88
2023-03-07T08:33:49.478Z,100019.06
2023-03-07T08:38:53.449Z,100017.22
2023-03-07T08:43:56.683Z,100013.38
2023-03-07T08:49:01.316Z,100023.03
2023-03-07T08:54:04.571Z,100017.19
2023-03-07T08:59:07.923Z,100023.56
2023-03-07T09:04:12.681Z,100029.38
2023-03-07T09:09:15.968Z,100026.38
2023-03-07T09:14:19.283Z,100029.81
2023-03-07T09:19:27.746Z,100045.19
2023-03-07T09:24:31.802Z,100041.94
2023-03-07T09:29:35.104Z,100042.19
2023-03-07T09:34:39.869Z,100043.91
2023-03-07T09:39:43.184Z,100041.09
2023-03-07T09:45:02.413Z,100042.44
2023-03-07T09:50:15.123Z,100040.66
2023-03-07T09:55:20.950Z,100036.91
2023-03-07T10:00:28.339Z,100031.94
2023-03-07T10:05:36.937Z,100044.69
2023-03-07T10:10:44.474Z,100042.44
2023-03-07T10:15:49.788Z,100041.00
2023-03-07T10:21:02.193Z,100026.63
2023-03-07T10:26:11.379Z,100031.56
2023-03-07T10:31:23.969Z,100024.84
2023-03-07T10:36:39.241Z,100027.06
2023-03-07T10:41:42.472Z,100026.00
2023-03-07T10:46:55.305Z,100038.03
2023-03-07T10:52:04.498Z,100039.41
2023-03-07T10:57:10.404Z,100043.91
2023-03-07T11:02:32.911Z,100048.81
2023-03-07T11:07:38.297Z,100047.31
2023-03-07T11:12:47.301Z,100045.72
2023-03-07T11:17:51.434Z,100056.41
2023-03-07T11:23:19.675Z,100068.00
2023-03-07T11:28:28.837Z,100081.72
2023-03-07T11:33:58.643Z,100111.91
2023-03-07T11:39:11.389Z,100106.13
2023-03-07T11:44:24.387Z,100108.31
2023-03-07T11:49:45.025Z,100104.63
2023-03-07T11:55:02.445Z,100103.09
2023-03-07T12:00:24.712Z,100104.72
2023-03-07T12:05:39.580Z,100099.63
2023-03-07T12:10:59.005Z,100102.78
2023-03-07T12:16:11.571Z,100108.78
2023-03-07T12:21:26.169Z,100088.13
2023-03-07T12:26:43.805Z,100089.13
2023-03-07T12:31:49.817Z,100087.66
2023-03-07T12:36:57.268Z,100079.50
2023-03-07T12:42:06.946Z,100080.44
2023-03-07T12:47:19.435Z,100078.47
2023-03-07T12:52:31.592Z,100075.09
2023-03-07T12:57:41.484Z,100070.91
2023-03-07T13:02:50.982Z,100069.94
2023-03-07T13:07:55.503Z,100058.69
2023-03-07T13:13:00.211Z,100052.72
2023-03-07T13:18:03.812Z,100042.78
2023-03-07T13:23:28.978Z,100018.97
2023-03-07T13:28:41.021Z,100012.69
2023-03-07T13:33:44.958Z,100003.16
2023-03-07T13:38:48.235Z,99988.16
2023-03-07T13:44:03.869Z,99992.94
2023-03-07T13:49:08.652Z,99993.66
2023-03-07T13:54:13.009Z,99981.69
2023-03-07T13:59:27.885Z,99983.91
2023-03-07T14:04:40.216Z,99969.06
2023-03-07T14:09:48.182Z,99963.94
2023-03-07T14:15:11.253Z,99974.25
2023-03-07T14:20:21.959Z,99959.03
2023-03-07T14:25:27.537Z,99949.44
2023-03-07T14:30:34.504Z,99950.09
2023-03-07T14:35:40.417Z,99955.28
2023-03-07T14:40:56.210Z,99968.91
2023-03-07T14:46:08.330Z,99963.72
2023-03-07T14:51:17.098Z,99964.34
2023-03-07T14:56:23.922Z,99954.13
2023-03-07T15:01:35.238Z,99960.19
2023-03-07T15:06:45.085Z,99961.16
2023-03-07T15:11:53.372Z,99960.53
2023-03-07T15:17:03.244Z,99942.97
2023-03-07T15:22:13.777Z,99939.28
2023-03-07T15:27:23.199Z,99948.50
2023-03-07T15:32:36.084Z,99957.97
2023-03-07T15:37:53.324Z,99955.00
2023-03-07T15:42:58.125Z,99957.22
2023-03-07T15:48:03.471Z,99947.47
2023-03-07T15:53:10.772Z,99954.47
2023-03-07T15:58:15.702Z,99947.78
2023-03-07T16:03:26.773Z,99936.63
2023-03-07T16:08:30.050Z,99938.63
2023-03-07T16:13:37.276Z,99935.13
2023-03-07T16:18:43.534Z,99927.25
2023-03-07T16:23:47.397Z,99949.69
2023-03-07T16:28:50.837Z,99930.47
2023-03-07T16:33:56.159Z,99917.22
2023-03-07T16:38:59.284Z,99914.03
2023-03-07T16:44:02.826Z,99906.69
2023-03-07T16:49:07.516Z,99911.94
2023-03-07T16:54:10.424Z,99930.47
2023-03-07T16:59:15.834Z,99919.22
2023-03-07T17:04:20.495Z,99917.97
2023-03-07T17:09:23.728Z,99906.69
2023-03-07T17:14:27.182Z,99920.63
2023-03-07T17:19:33.786Z,99916.41
2023-03-07T17:24:37.107Z,99929.28
2023-03-07T17:29:43.321Z,99904.72
2023-03-07T17:34:48.186Z,99898.09
2023-03-07T17:39:51.468Z,99921.66
2023-03-07T17:44:54.752Z,99904.44
2023-03-07T17:50:00.030Z,99911.22
2023-03-07T17:55:03.631Z,99917.03
2023-03-07T18:00:12.385Z,99915.75
2023-03-07T18:05:17.967Z,99905.97
2023-03-07T18:10:22.758Z,99908.63
2023-03-07T18:15:27.989Z,99909.25
2023-03-07T18:20:33.101Z,99909.03
2023-03-07T18:25:36.368Z,99904.91
2023-03-07T18:30:39.649Z,99908.28
2023-03-07T18:35:44.388Z,99915.06
2023-03-07T18:40:48.135Z,99905.16
2023-03-07T18:45:51.996Z,99902.31
2023-03-07T18:51:00.721Z,99903.88
2023-03-07T18:56:05.035Z,99912.47
2023-03-07T19:01:13.400Z,99918.06
2023-03-07T19:06:19.336Z,99901.72
2023-03-07T19:11:22.804Z,99889.81
2023-03-07T19:16:28.317Z,99884.19
2023-03-07T19:21:33.430Z,99888.78
2023-03-07T19:26:36.619Z,99894.13
2023-03-07T19:31:41.093Z,99884.78
2023-03-07T19:36:46.616Z,99890.63
2023-03-07T19:41:49.881Z,99891.53
2023-03-07T19:46:53.117Z,99882.09
2023-03-07T19:51:57.819Z,99878.09
2023-03-07T19:57:01.158Z,99883.25
2023-03-07T20:02:04.414Z,99876.75
2023-03-07T20:07:09.119Z,99893.69
2023-03-07T20:12:12.522Z,99898.69
2023-03-07T20:17:15.804Z,99900.44
2023-03-07T20:22:20.921Z,99896.63
2023-03-07T20:27:25.210Z,99888.78
2023-03-07T20:32:28.612Z,99895.38
2023-03-07T20:37:35.281Z,99882.41
2023-03-07T20:42:38.498Z,99885.19
2023-03-07T20:47:41.821Z,99876.69
2023-03-07T20:52:46.517Z,99884.53
2023-03-07T20:57:49.761Z,99875.28
2023-03-07T21:03:05.227Z,99886.53
2023-03-07T21:08:10.339Z,99881.22
2023-03-07T21:13:13.778Z,99877.50
2023-03-07T21:18:16.953Z,99866.66
2023-03-07T21:23:21.594Z,99872.94
2023-03-07T21:28:24.904Z,99880.06
2023-03-07T21:33:28.254Z,99876.19
2023-03-07T21:38:34.080Z,99863.31
2023-03-07T21:43:37.437Z,99861.63
2023-03-07T21:48:41.383Z,99853.22
2023-03-07T21:53:46.094Z,99846.91
2023-03-07T21:58:50.737Z,99857.53
2023-03-07T22:03:55.265Z,99851.78
2023-03-07T22:09:01.407Z,99853.03
2023-03-07T22:14:04.933Z,99849.38
2023-03-07T22:19:08.159Z,99849.94
2023-03-07T22:24:13.494Z,99837.47
2023-03-07T22:29:16.697Z,99826.69
2023-03-07T22:34:19.931Z,99834.91
2023-03-07T22:39:24.913Z,99834.91
2023-03-07T22:44:27.941Z,99844.91
2023-03-07T22:49:31.223Z,99838.03
2023-03-07T22:54:39.391Z,99842.19
2023-03-07T22:59:42.568Z,99839.94
2023-03-07T23:04:46.279Z,99818.50
2023-03-07T23:09:50.925Z,99826.03
2023-03-07T23:14:54.341Z,99837.47
2023-03-07T23:19:57.825Z,99836.38
2023-03-07T23:25:02.561Z,99829.63
2023-03-07T23:30:06.912Z,99824.16
2023-03-07T23:35:11.743Z,99817.53
2023-03-07T23:40:16.674Z,99813.63
2023-03-07T23:45:22.003Z,99820.63
2023-03-07T23:50:26.102Z,99814.50
2023-03-07T23:55:30.741Z,99809.56
